Time;durP1;ratioP1;P1;durP2;ratioP2;P2;SDS_P1;SDS_P2;PMS_P1;PMS_P2;Temp;Humidity;BMP_temperature;BMP_pressure;BME280_temperature;BME280_humidity;BME280_pressure;Samples;Min_cycle;Max_cycle;Signal;HPM_P1;HPM_P2
2022/06/30 00:00:47;;;;;;;;;2.00;0.00;;;;;;;;4896007;29;45541;-72
2022/06/30 00:03:13;;;;;;;;;0.67;0.67;;;;;;;;4900896;29;45253;-71
2022/06/30 00:05:39;;;;;;;;;0.33;0.33;;;;;;;;4894844;29;45334;-71
2022/06/30 00:08:04;;;;;;;;;0.67;0.67;;;;;;;;4901822;28;45289;-72
2022/06/30 00:10:29;;;;;;;;;4.00;0.67;;;;;;;;4892304;29;45431;-71
2022/06/30 00:12:55;;;;;;;;;1.67;1.00;;;;;;;;4901818;28;45474;-71
2022/06/30 00:15:20;;;;;;;;;0.00;0.00;;;;;;;;4895415;29;46431;-71
2022/06/30 00:17:46;;;;;;;;;0.33;0.33;;;;;;;;4899536;29;45304;-71
2022/06/30 00:20:11;;;;;;;;;1.00;1.00;;;;;;;;4894961;29;45511;-71
2022/06/30 00:22:36;;;;;;;;;1.67;0.67;;;;;;;;4900865;29;45328;-71
2022/06/30 00:25:02;;;;;;;;;1.67;0.67;;;;;;;;4893315;29;47943;-71
2022/06/30 00:27:27;;;;;;;;;1.00;1.00;;;;;;;;4899439;29;45321;-71
2022/06/30 00:29:53;;;;;;;;;0.67;0.67;;;;;;;;4893311;29;45476;-72
2022/06/30 00:32:18;;;;;;;;;2.67;1.00;;;;;;;;4900687;29;45336;-71
2022/06/30 00:34:43;;;;;;;;;1.00;1.00;;;;;;;;4894480;28;46444;-71
2022/06/30 00:37:08;;;;;;;;;1.00;1.00;;;;;;;;4901015;28;45231;-71
2022/06/30 00:39:33;;;;;;;;;1.00;1.00;;;;;;;;4895843;29;45393;-71
2022/06/30 00:41:59;;;;;;;;;1.00;1.00;;;;;;;;4901330;28;45296;-71
2022/06/30 00:44:24;;;;;;;;;1.00;1.00;;;;;;;;4895786;28;46154;-72
2022/06/30 00:46:49;;;;;;;;;1.00;1.00;;;;;;;;4900383;29;45297;-71
2022/06/30 00:49:16;;;;;;;;;1.00;1.00;;;;;;;;4898001;28;45238;-71
2022/06/30 00:51:41;;;;;;;;;0.67;0.67;;;;;;;;4900109;29;45241;-71
2022/06/30 00:54:07;;;;;;;;;2.00;2.00;;;;;;;;4899553;28;46375;-71
2022/06/30 00:56:37;;;;;;;;;0.00;0.00;;;;;;;;4901660;28;45476;-71
2022/06/30 00:59:03;;;;;;;;;2.67;1.33;;;;;;;;4899658;28;45459;-71
2022/06/30 01:01:29;;;;;;;;;1.00;1.00;;;;;;;;4902175;28;45585;-71
2022/06/30 01:03:55;;;;;;;;;1.33;1.33;;;;;;;;4896970;29;45487;-71
2022/06/30 01:06:21;;;;;;;;;1.67;0.67;;;;;;;;4902712;28;45154;-71
2022/06/30 01:08:47;;;;;;;;;1.00;1.00;;;;;;;;4898917;28;45429;-72
2022/06/30 01:13:56;;;;;;;;;2.00;2.00;;;;;;;;4895347;29;45344;-72
2022/06/30 01:16:22;;;;;;;;;2.00;1.00;;;;;;;;4902251;28;45262;-72
2022/06/30 01:18:47;;;;;;;;;0.67;0.67;;;;;;;;4898907;29;45336;-71
2022/06/30 01:21:13;;;;;;;;;3.00;2.00;;;;;;;;4901479;28;45999;-72
2022/06/30 01:23:38;;;;;;;;;1.00;1.00;;;;;;;;4899782;28;48145;-72
2022/06/30 01:26:03;;;;;;;;;1.00;1.00;;;;;;;;4902117;28;45316;-72
2022/06/30 01:28:28;;;;;;;;;2.33;2.00;;;;;;;;4899772;29;45340;-72
2022/06/30 01:30:53;;;;;;;;;2.00;1.00;;;;;;;;4898361;29;45609;-72
2022/06/30 01:33:19;;;;;;;;;1.00;1.00;;;;;;;;4902368;28;46445;-72
2022/06/30 01:35:44;;;;;;;;;3.33;3.00;;;;;;;;4898195;29;45213;-71
2022/06/30 01:38:09;;;;;;;;;3.67;3.00;;;;;;;;4904092;28;45426;-72
2022/06/30 01:40:35;;;;;;;;;2.00;2.00;;;;;;;;4897010;28;45621;-72
2022/06/30 01:43:01;;;;;;;;;4.00;1.33;;;;;;;;4903905;28;46865;-72
2022/06/30 01:45:27;;;;;;;;;1.00;1.00;;;;;;;;4897547;29;45490;-72
2022/06/30 01:47:53;;;;;;;;;3.00;2.00;;;;;;;;4902206;29;45290;-72
2022/06/30 01:50:20;;;;;;;;;3.00;2.00;;;;;;;;4897435;28;45455;-72
2022/06/30 01:52:45;;;;;;;;;2.00;1.00;;;;;;;;4901864;29;45815;-72
2022/06/30 01:55:10;;;;;;;;;1.33;1.33;;;;;;;;4893489;29;45357;-72
2022/06/30 01:57:36;;;;;;;;;1.00;1.00;;;;;;;;4903343;29;45149;-73
2022/06/30 02:00:03;;;;;;;;;2.00;2.00;;;;;;;;4897197;28;45356;-71
2022/06/30 02:02:28;;;;;;;;;2.00;2.00;;;;;;;;4902158;29;45613;-72
2022/06/30 02:04:53;;;;;;;;;2.00;2.00;;;;;;;;4896519;29;45270;-72
2022/06/30 02:07:19;;;;;;;;;2.00;2.00;;;;;;;;4903343;28;45221;-72
2022/06/30 02:09:45;;;;;;;;;1.33;1.33;;;;;;;;4896733;28;45347;-72
2022/06/30 02:14:54;;;;;;;;;4.33;1.00;;;;;;;;4897112;29;45484;-72
2022/06/30 02:17:20;;;;;;;;;3.67;3.00;;;;;;;;4902746;29;45326;-72
2022/06/30 02:19:45;;;;;;;;;5.00;3.00;;;;;;;;4896834;28;45525;-72
2022/06/30 02:22:10;;;;;;;;;1.00;1.00;;;;;;;;4902696;28;46188;-72
2022/06/30 02:24:35;;;;;;;;;5.33;1.67;;;;;;;;4896998;29;45448;-71
2022/06/30 02:27:01;;;;;;;;;5.00;1.00;;;;;;;;4902980;29;45402;-72
2022/06/30 02:29:26;;;;;;;;;2.00;2.00;;;;;;;;4895301;28;45418;-72
2022/06/30 02:31:51;;;;;;;;;2.33;2.33;;;;;;;;4902438;28;46562;-72
2022/06/30 02:34:16;;;;;;;;;3.00;3.00;;;;;;;;4898368;28;45395;-72
2022/06/30 02:36:42;;;;;;;;;2.00;2.00;;;;;;;;4901963;28;45474;-72
2022/06/30 02:39:07;;;;;;;;;2.00;2.00;;;;;;;;4898727;29;45456;-71
2022/06/30 02:41:32;;;;;;;;;6.67;2.00;;;;;;;;4900147;28;47046;-71
2022/06/30 02:43:58;;;;;;;;;2.00;2.00;;;;;;;;4899758;28;45556;-72
2022/06/30 02:46:23;;;;;;;;;2.00;2.00;;;;;;;;4901424;28;45419;-72
2022/06/30 02:48:49;;;;;;;;;2.33;2.33;;;;;;;;4896973;28;46076;-71
2022/06/30 02:51:14;;;;;;;;;3.67;3.67;;;;;;;;4901190;28;45610;-72
2022/06/30 02:53:39;;;;;;;;;2.67;2.00;;;;;;;;4897500;29;45531;-72
2022/06/30 02:56:04;;;;;;;;;3.00;3.00;;;;;;;;4900540;29;45392;-72
2022/06/30 02:58:30;;;;;;;;;3.00;2.00;;;;;;;;4900010;28;45379;-72
2022/06/30 03:00:55;;;;;;;;;4.67;3.00;;;;;;;;4901077;28;46270;-72
2022/06/30 03:03:20;;;;;;;;;3.00;3.00;;;;;;;;4900866;28;45490;-72
2022/06/30 03:05:45;;;;;;;;;5.00;4.00;;;;;;;;4897354;29;45424;-72
2022/06/30 03:08:10;;;;;;;;;4.33;3.00;;;;;;;;4902785;29;45513;-72
2022/06/30 03:10:36;;;;;;;;;5.00;2.00;;;;;;;;4896303;28;46265;-72
2022/06/30 03:13:01;;;;;;;;;3.67;3.67;;;;;;;;4901599;28;45342;-72
2022/06/30 03:15:27;;;;;;;;;3.00;3.00;;;;;;;;4895683;28;45408;-72
2022/06/30 03:17:52;;;;;;;;;2.00;2.00;;;;;;;;4901376;28;46718;-72
2022/06/30 03:20:17;;;;;;;;;2.33;2.33;;;;;;;;4896332;28;45656;-72
2022/06/30 03:22:42;;;;;;;;;3.00;3.00;;;;;;;;4902040;28;45438;-72
2022/06/30 03:25:08;;;;;;;;;2.00;1.67;;;;;;;;4896690;28;45486;-71
2022/06/30 03:27:33;;;;;;;;;4.00;2.33;;;;;;;;4901965;28;45399;-72
2022/06/30 03:29:58;;;;;;;;;3.67;2.00;;;;;;;;4894852;28;45552;-72
2022/06/30 03:32:24;;;;;;;;;3.00;3.00;;;;;;;;4901594;28;45422;-72
2022/06/30 03:34:49;;;;;;;;;3.00;3.00;;;;;;;;4896691;29;45651;-71
2022/06/30 03:37:14;;;;;;;;;2.67;2.33;;;;;;;;4902132;28;45597;-72
2022/06/30 03:39:39;;;;;;;;;3.33;3.00;;;;;;;;4897434;28;45676;-72
2022/06/30 03:42:04;;;;;;;;;4.00;3.33;;;;;;;;4900396;29;45415;-72
2022/06/30 03:44:30;;;;;;;;;4.67;4.33;;;;;;;;4895230;29;45470;-72
2022/06/30 03:46:56;;;;;;;;;2.67;2.67;;;;;;;;4901384;28;45336;-72
2022/06/30 03:49:22;;;;;;;;;2.33;2.33;;;;;;;;4897722;28;45517;-72
2022/06/30 03:51:47;;;;;;;;;4.67;3.33;;;;;;;;4901001;29;45243;-72
2022/06/30 03:54:12;;;;;;;;;3.00;3.00;;;;;;;;4897685;28;45663;-72
2022/06/30 03:56:37;;;;;;;;;5.00;3.00;;;;;;;;4900443;28;45722;-71
2022/06/30 03:59:02;;;;;;;;;4.00;2.33;;;;;;;;4897288;28;45721;-72
2022/06/30 04:01:28;;;;;;;;;5.00;2.33;;;;;;;;4900119;28;45272;-72
2022/06/30 04:03:53;;;;;;;;;5.00;5.00;;;;;;;;4896582;28;45383;-72
2022/06/30 04:06:18;;;;;;;;;5.00;4.33;;;;;;;;4898795;29;45379;-72
2022/06/30 04:08:43;;;;;;;;;4.67;2.33;;;;;;;;4898251;29;45464;-72
2022/06/30 04:11:08;;;;;;;;;5.00;5.00;;;;;;;;4897565;29;45498;-72
2022/06/30 04:13:34;;;;;;;;;3.00;3.00;;;;;;;;4899040;28;45667;-72
2022/06/30 04:15:59;;;;;;;;;6.00;3.00;;;;;;;;4892863;29;46224;-72
2022/06/30 04:18:24;;;;;;;;;3.67;3.00;;;;;;;;4899389;28;45354;-71
2022/06/30 04:20:49;;;;;;;;;4.33;3.33;;;;;;;;4895381;29;45229;-71
2022/06/30 04:23:14;;;;;;;;;4.33;3.00;;;;;;;;4902085;28;45217;-71
2022/06/30 04:25:41;;;;;;;;;6.33;3.00;;;;;;;;4894072;28;45296;-70
2022/06/30 04:28:06;;;;;;;;;5.00;4.67;;;;;;;;4902653;28;45520;-70
2022/06/30 04:33:15;;;;;;;;;3.67;3.00;;;;;;;;4901067;29;45281;-71
2022/06/30 04:35:40;;;;;;;;;5.33;4.00;;;;;;;;4896986;29;45893;-72
2022/06/30 04:38:05;;;;;;;;;4.00;4.00;;;;;;;;4903651;29;47919;-71
2022/06/30 04:43:15;;;;;;;;;5.33;3.67;;;;;;;;4905166;29;45168;-72
2022/06/30 04:45:41;;;;;;;;;5.00;3.67;;;;;;;;4897065;29;45609;-72
2022/06/30 04:48:06;;;;;;;;;4.33;4.00;;;;;;;;4904670;28;45614;-72
2022/06/30 04:50:31;;;;;;;;;4.67;3.67;;;;;;;;4896152;28;45360;-72
2022/06/30 04:52:56;;;;;;;;;4.67;3.00;;;;;;;;4905084;29;45231;-72
2022/06/30 04:55:22;;;;;;;;;7.00;3.33;;;;;;;;4896116;28;46441;-72
2022/06/30 04:57:47;;;;;;;;;4.00;4.00;;;;;;;;4904363;29;45265;-71
2022/06/30 05:00:12;;;;;;;;;3.67;2.67;;;;;;;;4895484;29;45192;-72
2022/06/30 05:02:38;;;;;;;;;4.33;4.00;;;;;;;;4904194;28;45446;-72
2022/06/30 05:05:03;;;;;;;;;7.33;4.33;;;;;;;;4896646;28;45429;-72
2022/06/30 05:07:28;;;;;;;;;2.33;2.33;;;;;;;;4904158;28;46488;-71
2022/06/30 05:09:53;;;;;;;;;7.00;4.00;;;;;;;;4896577;28;45515;-72
2022/06/30 05:12:19;;;;;;;;;3.00;3.00;;;;;;;;4901802;28;45297;-72
2022/06/30 05:14:44;;;;;;;;;6.00;4.67;;;;;;;;4895045;29;45870;-71
2022/06/30 05:17:09;;;;;;;;;6.67;4.33;;;;;;;;4902542;28;47048;-72
2022/06/30 05:19:34;;;;;;;;;6.33;5.00;;;;;;;;4894926;28;45416;-72
2022/06/30 05:22:00;;;;;;;;;3.00;3.00;;;;;;;;4904335;28;45234;-71
2022/06/30 05:27:09;;;;;;;;;4.00;2.67;;;;;;;;4890503;29;45428;-71
2022/06/30 05:29:34;;;;;;;;;2.33;2.33;;;;;;;;4887552;29;45582;-71
2022/06/30 05:32:00;;;;;;;;;4.33;3.67;;;;;;;;4897174;29;45411;-71
2022/06/30 05:34:25;;;;;;;;;4.00;4.00;;;;;;;;4896381;29;46441;-71
2022/06/30 05:36:50;;;;;;;;;5.00;3.67;;;;;;;;4899058;29;46965;-73
2022/06/30 05:39:17;;;;;;;;;6.00;4.00;;;;;;;;4894585;28;45374;-71
2022/06/30 05:41:42;;;;;;;;;5.00;3.00;;;;;;;;4885320;29;45428;-71
2022/06/30 05:44:07;;;;;;;;;6.33;4.00;;;;;;;;4894862;29;45293;-71
2022/06/30 05:46:33;;;;;;;;;5.33;4.00;;;;;;;;4883673;29;46723;-71
2022/06/30 05:48:58;;;;;;;;;7.00;4.33;;;;;;;;4892876;28;45273;-71
2022/06/30 05:51:24;;;;;;;;;5.33;5.00;;;;;;;;4887107;29;45271;-70
2022/06/30 05:53:49;;;;;;;;;6.33;3.33;;;;;;;;4894802;29;45316;-71
2022/06/30 05:56:14;;;;;;;;;4.67;4.67;;;;;;;;4882305;29;46655;-71
2022/06/30 05:58:39;;;;;;;;;3.00;3.00;;;;;;;;4881554;29;45253;-72
2022/06/30 06:01:04;;;;;;;;;5.67;4.00;;;;;;;;4877955;29;45400;-71
2022/06/30 06:03:30;;;;;;;;;3.67;3.67;;;;;;;;4886625;29;45342;-70
2022/06/30 06:05:55;;;;;;;;;4.33;3.33;;;;;;;;4879255;29;46256;-72
2022/06/30 06:08:20;;;;;;;;;5.33;5.00;;;;;;;;4890665;29;45212;-71
2022/06/30 06:10:45;;;;;;;;;6.00;4.00;;;;;;;;4883059;29;45435;-71
2022/06/30 06:13:13;;;;;;;;;3.00;3.00;;;;;;;;4892780;29;45399;-77
2022/06/30 06:15:38;;;;;;;;;4.00;4.00;;;;;;;;4887821;29;46237;-72
2022/06/30 06:18:03;;;;;;;;;5.33;3.67;;;;;;;;4892212;29;45429;-71
2022/06/30 06:20:28;;;;;;;;;2.33;2.33;;;;;;;;4881989;28;45328;-72
2022/06/30 06:22:54;;;;;;;;;4.67;4.00;;;;;;;;4899926;29;45485;-73
2022/06/30 06:25:19;;;;;;;;;4.00;4.00;;;;;;;;4897363;28;45454;-72
2022/06/30 06:29:05;;;;;;;;;3.67;3.67;;;;;;;;4895335;28;45247;-72
2022/06/30 06:30:29;;;;;;;;;4.00;4.00;;;;;;;;4882293;29;45447;-71
2022/06/30 06:32:54;;;;;;;;;7.67;5.00;;;;;;;;4899725;29;45323;-72
2022/06/30 06:35:20;;;;;;;;;4.00;4.00;;;;;;;;4878331;28;45406;-72
2022/06/30 06:37:45;;;;;;;;;3.00;3.00;;;;;;;;4890679;29;45291;-73
2022/06/30 06:40:10;;;;;;;;;6.00;4.33;;;;;;;;4880879;29;45348;-72
2022/06/30 06:42:36;;;;;;;;;3.67;3.67;;;;;;;;4889175;29;46517;-72
2022/06/30 06:45:01;;;;;;;;;4.00;3.00;;;;;;;;4878994;28;46364;-73
2022/06/30 06:47:26;;;;;;;;;5.33;4.67;;;;;;;;4875442;29;45304;-73
2022/06/30 06:49:51;;;;;;;;;6.33;5.00;;;;;;;;4877152;29;45537;-72
2022/06/30 06:52:16;;;;;;;;;7.00;3.00;;;;;;;;4880840;29;45429;-72
2022/06/30 06:54:42;;;;;;;;;5.67;4.00;;;;;;;;4879895;29;45440;-72
2022/06/30 06:57:07;;;;;;;;;4.67;4.00;;;;;;;;4894766;29;45390;-72
2022/06/30 06:59:34;;;;;;;;;4.67;4.00;;;;;;;;4882563;28;45322;-72
2022/06/30 07:01:59;;;;;;;;;4.00;3.00;;;;;;;;4906611;28;45459;-72
2022/06/30 07:04:24;;;;;;;;;6.67;6.67;;;;;;;;4885345;28;45428;-73
2022/06/30 07:06:49;;;;;;;;;3.67;3.67;;;;;;;;4892542;29;45226;-73
2022/06/30 07:09:14;;;;;;;;;6.00;4.00;;;;;;;;4888186;28;45213;-73
2022/06/30 07:11:40;;;;;;;;;7.00;4.33;;;;;;;;4893931;29;45287;-73
2022/06/30 07:14:05;;;;;;;;;7.33;6.00;;;;;;;;4888796;29;46910;-73
2022/06/30 07:16:31;;;;;;;;;5.00;4.00;;;;;;;;4894916;29;45261;-73
2022/06/30 07:18:56;;;;;;;;;6.33;4.00;;;;;;;;4888861;29;45318;-72
2022/06/30 07:21:21;;;;;;;;;4.00;4.00;;;;;;;;4870666;29;45566;-73
2022/06/30 07:23:46;;;;;;;;;6.67;4.00;;;;;;;;4883630;29;46288;-72
2022/06/30 07:26:12;;;;;;;;;3.67;3.67;;;;;;;;4887168;29;45294;-72
2022/06/30 07:28:37;;;;;;;;;5.00;4.67;;;;;;;;4894640;28;45289;-72
2022/06/30 07:31:03;;;;;;;;;4.00;4.00;;;;;;;;4884114;29;45420;-72
2022/06/30 07:33:28;;;;;;;;;6.67;4.67;;;;;;;;4900356;28;46341;-71
2022/06/30 07:35:53;;;;;;;;;5.00;5.00;;;;;;;;4889331;29;45519;-71
2022/06/30 07:38:18;;;;;;;;;4.00;4.00;;;;;;;;4902886;28;45421;-71
2022/06/30 07:40:43;;;;;;;;;7.67;6.00;;;;;;;;4877155;29;45437;-71
2022/06/30 07:43:09;;;;;;;;;5.33;5.00;;;;;;;;4886861;29;47066;-70
2022/06/30 07:45:34;;;;;;;;;4.33;4.33;;;;;;;;4882120;28;45374;-71
2022/06/30 07:47:59;;;;;;;;;4.67;4.67;;;;;;;;4893624;29;45376;-71
2022/06/30 07:50:24;;;;;;;;;4.67;4.00;;;;;;;;4881976;28;45585;-72
2022/06/30 07:52:50;;;;;;;;;8.33;5.00;;;;;;;;4893653;29;46184;-71
2022/06/30 07:55:15;;;;;;;;;4.33;4.33;;;;;;;;4885359;28;45323;-72
2022/06/30 07:57:42;;;;;;;;;8.00;7.00;;;;;;;;4877404;29;45326;-71
2022/06/30 08:00:08;;;;;;;;;6.00;4.00;;;;;;;;4881487;29;45332;-71
2022/06/30 08:02:34;;;;;;;;;3.00;3.00;;;;;;;;4898345;29;45529;-71
2022/06/30 08:04:59;;;;;;;;;2.67;2.67;;;;;;;;4894607;28;45445;-70
2022/06/30 08:07:24;;;;;;;;;3.00;3.00;;;;;;;;4901976;29;45438;-71
2022/06/30 08:09:49;;;;;;;;;4.33;3.33;;;;;;;;4896101;28;45436;-70
2022/06/30 08:12:15;;;;;;;;;4.00;4.00;;;;;;;;4901747;28;46544;-70
2022/06/30 08:14:40;;;;;;;;;3.00;3.00;;;;;;;;4893599;29;45484;-70
2022/06/30 08:17:06;;;;;;;;;4.00;3.00;;;;;;;;4901670;28;45418;-71
2022/06/30 08:19:31;;;;;;;;;5.00;5.00;;;;;;;;4894631;28;45512;-71
2022/06/30 08:21:56;;;;;;;;;3.00;3.00;;;;;;;;4901609;28;45421;-71
2022/06/30 08:24:21;;;;;;;;;4.00;4.00;;;;;;;;4895766;29;45416;-71
2022/06/30 08:26:47;;;;;;;;;5.00;4.33;;;;;;;;4900817;28;45416;-72
2022/06/30 08:29:13;;;;;;;;;6.67;4.00;;;;;;;;4894205;29;46807;-72
2022/06/30 08:31:38;;;;;;;;;4.67;3.00;;;;;;;;4900558;29;45415;-72
2022/06/30 08:34:03;;;;;;;;;5.33;3.00;;;;;;;;4896116;28;45551;-72
2022/06/30 08:36:28;;;;;;;;;3.00;3.00;;;;;;;;4875672;29;45535;-72
2022/06/30 08:38:54;;;;;;;;;3.00;3.00;;;;;;;;4895634;29;45487;-72
2022/06/30 08:44:04;;;;;;;;;3.33;3.00;;;;;;;;4897741;29;45449;-72
2022/06/30 08:46:31;;;;;;;;;3.00;3.00;;;;;;;;4896812;28;45452;-72
2022/06/30 08:48:57;;;;;;;;;5.67;3.00;;;;;;;;4896828;28;45553;-71
2022/06/30 08:51:27;;;;;;;;;3.00;1.00;;;;;;;;4895970;29;45467;-72
2022/06/30 08:53:55;;;;;;;;;4.00;3.00;;;;;;;;4897129;28;45500;-72
2022/06/30 08:56:22;;;;;;;;;6.00;3.67;;;;;;;;4899537;28;45300;-72
2022/06/30 08:58:49;;;;;;;;;2.00;2.00;;;;;;;;4897133;28;46156;-71
2022/06/30 09:01:14;;;;;;;;;4.67;3.67;;;;;;;;4897230;28;45302;-72
2022/06/30 09:03:39;;;;;;;;;2.67;2.67;;;;;;;;4895701;29;45253;-72
2022/06/30 09:06:05;;;;;;;;;3.67;3.67;;;;;;;;4897882;28;45513;-72
2022/06/30 09:08:30;;;;;;;;;3.67;3.67;;;;;;;;4899056;28;45534;-71
2022/06/30 09:10:55;;;;;;;;;3.00;3.00;;;;;;;;4896715;29;47560;-72
2022/06/30 09:13:21;;;;;;;;;3.00;3.00;;;;;;;;4903014;28;45296;-72
2022/06/30 09:15:49;;;;;;;;;6.00;3.67;;;;;;;;4897310;29;45269;-71
2022/06/30 09:18:25;;;;;;;;;2.00;2.00;;;;;;;;4901121;29;45384;-71
2022/06/30 09:20:51;;;;;;;;;4.00;3.00;;;;;;;;4883280;29;45473;-71
2022/06/30 09:23:24;;;;;;;;;5.00;3.67;;;;;;;;4894098;29;45346;-71
2022/06/30 09:25:50;;;;;;;;;4.67;3.33;;;;;;;;4886409;29;45404;-71
2022/06/30 09:28:15;;;;;;;;;3.67;2.00;;;;;;;;4898320;28;45344;-71
2022/06/30 09:30:41;;;;;;;;;3.00;3.00;;;;;;;;4884395;29;46341;-72
2022/06/30 09:33:07;;;;;;;;;4.00;2.67;;;;;;;;4898217;29;45730;-71
2022/06/30 09:35:32;;;;;;;;;4.00;3.00;;;;;;;;4896580;28;45305;-71
2022/06/30 09:37:57;;;;;;;;;4.00;2.33;;;;;;;;4902948;29;45355;-71
2022/06/30 09:40:27;;;;;;;;;2.33;2.33;;;;;;;;4896465;28;46530;-71
2022/06/30 09:42:53;;;;;;;;;2.00;2.00;;;;;;;;4902102;28;45512;-71
2022/06/30 09:45:31;;;;;;;;;7.00;3.67;;;;;;;;4896846;28;45419;-70
2022/06/30 09:47:57;;;;;;;;;2.33;2.33;;;;;;;;4901099;29;45304;-71
2022/06/30 09:50:22;;;;;;;;;3.00;3.00;;;;;;;;4896009;29;46708;-71
2022/06/30 09:53:03;;;;;;;;;4.00;4.00;;;;;;;;4898804;29;45386;-71
2022/06/30 09:55:38;;;;;;;;;4.67;2.67;;;;;;;;4896215;28;45408;-71
2022/06/30 09:58:03;;;;;;;;;2.00;2.00;;;;;;;;4902002;29;45479;-71
2022/06/30 10:00:29;;;;;;;;;2.00;2.00;;;;;;;;4895230;28;46601;-71
2022/06/30 10:02:54;;;;;;;;;5.00;2.00;;;;;;;;4901931;29;45482;-71
2022/06/30 10:05:19;;;;;;;;;3.33;3.33;;;;;;;;4896419;28;45560;-71
2022/06/30 10:07:45;;;;;;;;;4.00;4.00;;;;;;;;4901757;29;45445;-71
2022/06/30 10:10:14;;;;;;;;;3.67;2.67;;;;;;;;4894776;29;46521;-71
2022/06/30 10:12:40;;;;;;;;;1.67;1.67;;;;;;;;4900305;28;45312;-71
2022/06/30 10:15:07;;;;;;;;;3.00;3.00;;;;;;;;4894828;28;45184;-71
2022/06/30 10:17:34;;;;;;;;;2.67;2.00;;;;;;;;4901424;28;45396;-71
2022/06/30 10:19:59;;;;;;;;;1.67;1.67;;;;;;;;4893437;29;45371;-71
2022/06/30 10:22:26;;;;;;;;;3.00;2.00;;;;;;;;4901360;28;45341;-71
2022/06/30 10:24:51;;;;;;;;;2.00;2.00;;;;;;;;4894723;28;45341;-71
2022/06/30 10:27:18;;;;;;;;;2.67;2.67;;;;;;;;4902163;28;45368;-71
2022/06/30 10:30:05;;;;;;;;;2.33;2.33;;;;;;;;4894647;28;45612;-71
2022/06/30 10:32:41;;;;;;;;;3.00;2.00;;;;;;;;4900679;28;45632;-72
2022/06/30 10:35:09;;;;;;;;;4.00;3.00;;;;;;;;4894810;29;45410;-72
2022/06/30 10:37:45;;;;;;;;;3.67;2.00;;;;;;;;4901040;28;45450;-72
2022/06/30 10:40:30;;;;;;;;;3.67;3.00;;;;;;;;4894038;28;47180;-72
2022/06/30 10:42:56;;;;;;;;;5.00;4.00;;;;;;;;4896992;28;45518;-71
2022/06/30 10:45:30;;;;;;;;;2.33;2.33;;;;;;;;4881528;29;45316;-71
2022/06/30 10:47:56;;;;;;;;;3.33;2.00;;;;;;;;4895839;29;45445;-71
2022/06/30 10:50:34;;;;;;;;;5.00;3.00;;;;;;;;4879457;29;45303;-71
2022/06/30 10:53:01;;;;;;;;;3.00;3.00;;;;;;;;4889106;29;45243;-72
2022/06/30 10:55:26;;;;;;;;;4.00;3.33;;;;;;;;4888282;29;45416;-72
2022/06/30 10:57:58;;;;;;;;;4.67;3.33;;;;;;;;4893097;28;45431;-72
2022/06/30 11:00:41;;;;;;;;;4.67;3.33;;;;;;;;4881249;29;45378;-72
2022/06/30 11:03:06;;;;;;;;;4.00;2.67;;;;;;;;4892044;29;45300;-71
2022/06/30 11:05:31;;;;;;;;;4.00;3.00;;;;;;;;4886788;28;45430;-72
2022/06/30 11:08:17;;;;;;;;;3.00;3.00;;;;;;;;4900703;29;45428;-72
2022/06/30 11:10:42;;;;;;;;;3.67;2.67;;;;;;;;4885146;28;46986;-72
2022/06/30 11:13:07;;;;;;;;;3.00;3.00;;;;;;;;4890295;29;45394;-71
2022/06/30 11:15:49;;;;;;;;;3.67;2.00;;;;;;;;4890124;28;45399;-72
2022/06/30 11:18:14;;;;;;;;;2.33;2.33;;;;;;;;4900012;29;45478;-72
2022/06/30 11:20:41;;;;;;;;;4.00;2.67;;;;;;;;4879591;28;45527;-72
2022/06/30 11:23:07;;;;;;;;;4.33;3.00;;;;;;;;4886045;29;45345;-72
2022/06/30 11:28:17;;;;;;;;;4.33;3.33;;;;;;;;4884968;29;45431;-72
2022/06/30 11:30:43;;;;;;;;;2.00;2.00;;;;;;;;4882634;29;45608;-72
2022/06/30 11:33:08;;;;;;;;;5.67;4.00;;;;;;;;4894274;28;45486;-72
2022/06/30 11:35:34;;;;;;;;;2.33;2.00;;;;;;;;4881370;29;45459;-72
2022/06/30 11:37:59;;;;;;;;;4.33;3.00;;;;;;;;4891896;29;47397;-73
2022/06/30 11:40:24;;;;;;;;;2.33;2.00;;;;;;;;4897127;28;45600;-72
2022/06/30 11:42:51;;;;;;;;;4.00;2.33;;;;;;;;4900222;29;45357;-72
2022/06/30 11:45:19;;;;;;;;;3.00;3.00;;;;;;;;4883084;28;45213;-72
2022/06/30 11:47:55;;;;;;;;;5.00;4.00;;;;;;;;4885330;28;45336;-72
2022/06/30 11:50:21;;;;;;;;;6.00;4.33;;;;;;;;4877228;29;45446;-72
2022/06/30 11:52:47;;;;;;;;;3.00;2.00;;;;;;;;4877061;29;45580;-72
2022/06/30 11:55:17;;;;;;;;;6.33;3.00;;;;;;;;4882643;29;45463;-71
2022/06/30 11:57:43;;;;;;;;;2.00;2.00;;;;;;;;4879943;28;45173;-71
2022/06/30 12:00:10;;;;;;;;;1.00;1.00;;;;;;;;4880581;29;45583;-71
2022/06/30 12:02:36;;;;;;;;;5.00;3.00;;;;;;;;4889590;29;45424;-71
2022/06/30 12:05:03;;;;;;;;;2.33;2.00;;;;;;;;4882841;29;45290;-71
2022/06/30 12:07:29;;;;;;;;;5.00;2.00;;;;;;;;4889001;28;45340;-71
2022/06/30 12:09:55;;;;;;;;;1.67;1.00;;;;;;;;4885090;29;45375;-72
2022/06/30 12:12:27;;;;;;;;;3.00;2.00;;;;;;;;4901101;28;45198;-71
2022/06/30 12:14:56;;;;;;;;;1.67;1.67;;;;;;;;4884582;29;45385;-70
2022/06/30 12:17:21;;;;;;;;;4.00;2.00;;;;;;;;4892224;29;45437;-70
2022/06/30 12:19:47;;;;;;;;;1.00;1.00;;;;;;;;4888371;29;46084;-71
2022/06/30 12:22:12;;;;;;;;;1.00;1.00;;;;;;;;4882510;29;45396;-70
2022/06/30 12:24:38;;;;;;;;;1.33;1.33;;;;;;;;4881725;29;45393;-70
2022/06/30 12:27:04;;;;;;;;;1.00;1.00;;;;;;;;4900244;29;45487;-70
2022/06/30 12:29:29;;;;;;;;;1.67;1.67;;;;;;;;4896293;28;46407;-70
2022/06/30 12:31:58;;;;;;;;;2.00;1.00;;;;;;;;4883332;29;45467;-70
2022/06/30 12:34:24;;;;;;;;;3.33;0.67;;;;;;;;4885152;29;45474;-70
2022/06/30 12:36:49;;;;;;;;;1.00;1.00;;;;;;;;4886295;29;45450;-70
2022/06/30 12:39:14;;;;;;;;;1.00;1.00;;;;;;;;4891818;28;46126;-70
2022/06/30 12:41:40;;;;;;;;;2.00;1.00;;;;;;;;4886021;29;45162;-70
2022/06/30 12:44:05;;;;;;;;;1.00;1.00;;;;;;;;4891999;29;45284;-69
2022/06/30 12:46:40;;;;;;;;;1.00;1.00;;;;;;;;4889487;28;45285;-70
2022/06/30 12:49:06;;;;;;;;;1.00;1.00;;;;;;;;4886705;29;47653;-70
2022/06/30 12:51:31;;;;;;;;;1.00;1.00;;;;;;;;4887311;29;45257;-71
2022/06/30 12:54:04;;;;;;;;;1.00;1.00;;;;;;;;4890010;29;45305;-70
2022/06/30 12:56:29;;;;;;;;;3.00;1.33;;;;;;;;4891797;29;45510;-70
2022/06/30 12:58:59;;;;;;;;;1.00;1.00;;;;;;;;4895296;29;46409;-70
2022/06/30 13:01:26;;;;;;;;;2.00;2.00;;;;;;;;4881817;29;45406;-70
2022/06/30 13:04:21;;;;;;;;;2.00;2.00;;;;;;;;4896649;28;45361;-71
2022/06/30 13:06:46;;;;;;;;;2.00;2.00;;;;;;;;4885172;29;45553;-70
2022/06/30 13:09:13;;;;;;;;;2.33;2.00;;;;;;;;4885470;29;45360;-70
2022/06/30 13:11:42;;;;;;;;;1.33;1.33;;;;;;;;4896456;29;45353;-70
2022/06/30 13:14:08;;;;;;;;;2.67;1.67;;;;;;;;4886554;29;45180;-71
2022/06/30 13:16:33;;;;;;;;;1.00;1.00;;;;;;;;4891015;29;45521;-71
2022/06/30 13:18:59;;;;;;;;;2.00;2.00;;;;;;;;4891071;29;46242;-69
2022/06/30 13:21:25;;;;;;;;;2.00;2.00;;;;;;;;4899300;29;45434;-70
2022/06/30 13:23:50;;;;;;;;;1.00;1.00;;;;;;;;4898627;29;45354;-71
2022/06/30 13:26:15;;;;;;;;;1.00;1.00;;;;;;;;4889515;28;45676;-70
2022/06/30 13:28:41;;;;;;;;;1.00;1.00;;;;;;;;4886960;29;46627;-70
2022/06/30 13:31:06;;;;;;;;;2.00;2.00;;;;;;;;4881093;29;45450;-70
2022/06/30 13:33:34;;;;;;;;;1.67;1.33;;;;;;;;4887367;29;45315;-71
2022/06/30 13:36:00;;;;;;;;;1.00;1.00;;;;;;;;4879600;29;45452;-70
2022/06/30 13:38:25;;;;;;;;;2.00;2.00;;;;;;;;4890563;29;45591;-70
2022/06/30 13:40:50;;;;;;;;;1.00;1.00;;;;;;;;4894052;29;45520;-70
2022/06/30 13:43:16;;;;;;;;;1.33;1.33;;;;;;;;4904072;28;45220;-70
2022/06/30 13:45:41;;;;;;;;;1.00;0.67;;;;;;;;4882095;28;45573;-70
2022/06/30 13:48:06;;;;;;;;;1.00;1.00;;;;;;;;4891714;29;45386;-71
2022/06/30 13:50:32;;;;;;;;;1.67;1.67;;;;;;;;4891202;29;45284;-71
2022/06/30 13:52:59;;;;;;;;;2.00;1.00;;;;;;;;4890372;29;45186;-70
2022/06/30 13:55:24;;;;;;;;;0.67;0.67;;;;;;;;4886660;29;45546;-70
2022/06/30 13:57:49;;;;;;;;;1.67;1.67;;;;;;;;4899647;28;46297;-70
2022/06/30 14:00:16;;;;;;;;;1.33;1.33;;;;;;;;4885965;29;47433;-70
2022/06/30 14:02:41;;;;;;;;;1.00;1.00;;;;;;;;4902257;28;45426;-71
2022/06/30 14:05:06;;;;;;;;;0.67;0.67;;;;;;;;4896154;28;45566;-70
2022/06/30 14:07:32;;;;;;;;;1.00;1.00;;;;;;;;4900820;28;47334;-70
2022/06/30 14:09:59;;;;;;;;;1.00;1.00;;;;;;;;4895968;28;45523;-70
2022/06/30 14:12:24;;;;;;;;;1.67;1.67;;;;;;;;4902399;28;45487;-70
2022/06/30 14:14:50;;;;;;;;;3.00;1.33;;;;;;;;4895882;28;46158;-72
2022/06/30 14:17:15;;;;;;;;;1.00;1.00;;;;;;;;4901886;28;46497;-69
2022/06/30 14:19:40;;;;;;;;;2.67;1.00;;;;;;;;4892969;28;45439;-71
2022/06/30 14:22:06;;;;;;;;;2.00;2.00;;;;;;;;4890884;29;45865;-71
2022/06/30 14:24:31;;;;;;;;;1.00;1.00;;;;;;;;4893625;29;45221;-70
2022/06/30 14:26:57;;;;;;;;;2.00;2.00;;;;;;;;4901609;29;45496;-70
2022/06/30 14:29:22;;;;;;;;;1.00;1.00;;;;;;;;4899506;28;45480;-70
2022/06/30 14:31:48;;;;;;;;;1.67;0.67;;;;;;;;4899429;29;45480;-69
2022/06/30 14:34:13;;;;;;;;;0.33;0.33;;;;;;;;4897772;28;45598;-69
2022/06/30 14:36:39;;;;;;;;;1.00;1.00;;;;;;;;4894927;28;45503;-70
2022/06/30 14:39:04;;;;;;;;;0.67;0.67;;;;;;;;4893380;29;45433;-70
2022/06/30 14:44:13;;;;;;;;;2.00;2.00;;;;;;;;4896873;29;45233;-70
2022/06/30 14:46:39;;;;;;;;;2.00;2.00;;;;;;;;4897522;29;46794;-69
2022/06/30 14:49:04;;;;;;;;;2.00;1.00;;;;;;;;4896103;28;45270;-70
2022/06/30 14:51:29;;;;;;;;;1.33;1.33;;;;;;;;4894763;29;45265;-69
2022/06/30 14:53:55;;;;;;;;;0.67;0.67;;;;;;;;4911666;28;47314;-70
2022/06/30 14:56:20;;;;;;;;;2.00;2.00;;;;;;;;4899557;29;45739;-69
2022/06/30 14:58:45;;;;;;;;;1.00;1.00;;;;;;;;4898341;28;45388;-70